x

Yucatan Basin - 120 Nm Ese Of Cozumel, Mx (42056) Weather Station

11:20 - Thu 29th Sep 2016 All times are CDT. -5 hours from GMT.

  • Wind
    13mph, 16mph gusts
  • Sea Temp 86°f
  • Ar Temp 85°f
  • Sea Pressure 1016mb
  •  Yucatan Basin - 120 Nm Ese Of Cozumel, Mx
  •  Yucatan Basin - 120 Nm Ese Of Cozumel, Mx

More Historic Weather Station data

Upgrade to MSW Pro to gain access to the past 30 days of data for over 8000 Wavebouys and Weather Stations around the globe.

Join Pro

Comparision Forecast

View Surf forecast
   
Qui 09/29 11:20  -   -   -  13 16 mph 1016mb 86f 85f
11:10  -   -   -  13 16 mph 1016.1mb 86f 85f
11:00  -   -   -  13 16 mph 1016.3mb 86f 86f
10:50 2.5ft 5s 4s 11 16 mph 1016.5mb 86f 86f
10:40 2.5ft  -  4s 11 13 mph 1016.5mb 86f 85f
10:30  -   -   -  11 13 mph 1016.6mb 86f 86f
10:20  -   -   -  11 13 mph 1016.8mb 86f 86f
10:10  -   -   -  11 13 mph 1016.9mb 86f 86f
10:00  -   -   -  11 16 mph 1017mb 86f 86f
9:50 2.5ft 6s 4s 11 13 mph 1016.8mb 86f 86f
9:40 2.5ft  -  4s 11 13 mph 1016.8mb 86f 86f
9:30  -   -   -  11 13 mph 1016.6mb 86f 86f
9:20  -   -   -  11 16 mph 1016.5mb 86f 86f
9:10  -   -   -  11 16 mph 1016.6mb 86f 86f
9:00  -   -   -  11 13 mph 1016.5mb 86f 86f
8:50 2.5ft 5s 4s 11 16 mph 1016.5mb 86f 86f
8:40  -   -   -  11 16 mph 1016.5mb 86f 86f
8:30  -   -   -  13 16 mph 1016.3mb 86f 86f
8:20  -   -   -  13 16 mph 1016mb 86f 86f
8:10  -   -   -  11 13 mph 1016mb 86f 86f
8:00  -   -   -  11 13 mph 1016mb 86f 86f
7:50 2.5ft 5s 4s 11 13 mph 1015.8mb 86f 86f
7:40 2.5ft  -  4s 11 13 mph 1015.6mb 86f 86f
7:30  -   -   -  11 13 mph 1015.6mb 86f 86f
7:20  -   -   -  9 11 mph 1015.5mb 86f 86f
7:10  -   -   -  9 13 mph 1015.6mb 86f 86f
7:00  -   -   -  9 11 mph 1015.5mb 86f 86f
6:50 2.5ft 5s 4s 9 11 mph 1015.5mb 86f 86f
6:40 2.5ft  -  4s 9 11 mph 1015.5mb 86f 86f
6:30  -   -   -  9 11 mph 1015.4mb 86f 86f
6:20  -   -   -  9 11 mph 1015.4mb 86f 86f
6:10  -   -   -  9 13 mph 1015.3mb 86f 86f
6:00  -   -   -  9 13 mph 1015.3mb 86f 86f
5:50 2.5ft 5s 4s 11 13 mph 1015.1mb 86f 86f
5:40  -   -   -  11 13 mph 1015mb 86f 86f
5:30  -   -   -  11 13 mph 1014.9mb 86f 86f
5:20  -   -   -  13 16 mph 1014.5mb 86f 86f
5:10  -   -   -  11 13 mph 1014.5mb 86f 86f
5:00  -   -   -  11 13 mph 1014.5mb 86f 86f
4:50 2.5ft 5s 4s 11 13 mph 1014.5mb 86f 86f
4:40 2.5ft  -  4s 11 13 mph 1014.5mb 86f 86f
4:30  -   -   -  11 16 mph 1014.5mb 86f 86f
4:20  -   -   -  11 16 mph 1014.5mb 86f 86f
4:10  -   -   -  11 16 mph 1014.5mb 86f 86f
4:00  -   -   -  13 16 mph 1014.8mb 86f 86f
3:50 2.5ft 5s 4s 13 16 mph 1015mb 86f 86f
3:40 2.5ft  -  4s 13 16 mph 1015mb 86f 86f
3:30  -   -   -  11 13 mph 1015.1mb 86f 85f
3:20  -   -   -  7 9 mph 1015.1mb 86f 84f
3:10  -   -   -  9 16 mph 1015.3mb 86f 84f
3:00  -   -   -  11 16 mph 1015.4mb 86f 85f
2:50 2.5ft 5s 4s 13 16 mph 1015.3mb 86f 86f
2:40 2.5ft  -  4s 13 18 mph 1015.1mb 86f 86f
2:30  -   -   -  13 16 mph 1015.3mb 86f 86f
2:20  -   -   -  11 13 mph 1015.3mb 86f 86f
2:10  -   -   -  11 13 mph 1015.5mb 86f 86f
2:00  -   -   -  11 13 mph 1015.5mb 86f 86f
1:50 2.5ft 6s 4s 11 13 mph 1015.8mb 86f 86f
1:40 2.5ft  -  4s 9 13 mph 1015.9mb 86f 86f
1:30  -   -   -  9 11 mph 1016mb 86f 86f
1:20  -   -   -  9 11 mph 1016mb 86f 86f
1:10  -   -   -  9 11 mph 1016mb 86f 86f
1:00  -   -   -  11 13 mph 1016.1mb 86f 86f
12:50 2.5ft 5s 4s 11 13 mph 1016.1mb 86f 86f
12:40  -   -   -  11 13 mph 1016.4mb 86f 86f
12:30  -   -   -  11 13 mph 1016.5mb 86f 86f
12:20  -   -   -  11 13 mph 1016.5mb 86f 86f
12:10  -   -   -  11 13 mph 1016.8mb 86f 85f
12:00  -   -   -  11 16 mph 1016.9mb 86f 85f
11:50 2.5ft 4s 4s 13 16 mph 1016.9mb 86f 85f
11:40  -   -   -  11 16 mph 1017mb 86f 86f
11:30  -   -   -  13 16 mph 1017mb 86f 86f
11:20  -   -   -  13 16 mph 1017mb 86f 86f
11:10  -   -   -  13 18 mph 1017mb 86f 86f
11:00  -   -   -  16 18 mph 1017mb 86f 86f
10:50 2.5ft 5s 4s 13 18 mph 1016.9mb 86f 85f
10:40 2.5ft  -  4s 13 16 mph 1016.9mb 86f 86f
10:30  -   -   -  13 16 mph 1016.9mb 86f 85f
10:20  -   -   -  16 18 mph 1016.8mb 86f 85f
10:10  -   -   -  16 18 mph 1016.6mb 86f 86f
10:00  -   -   -  16 18 mph 1016.6mb 86f 85f
9:50 2.5ft 5s 4s 16 18 mph 1016.5mb 86f 85f
9:40 2.5ft  -  4s 16 18 mph 1016.4mb 86f 85f
9:30  -   -   -  16 18 mph 1016.3mb 86f 85f
9:20  -   -   -  16 18 mph 1016.1mb 86f 85f
9:10  -   -   -  16 18 mph 1016mb 86f 85f
9:00  -   -   -  13 18 mph 1016mb 86f 85f
8:50 2.5ft 5s 4s 13 16 mph 1016mb 86f 85f
8:40 2.5ft  -  4s 13 18 mph 1015.9mb 86f 85f
8:30  -   -   -  13 16 mph 1015.9mb 86f 85f
8:20  -   -   -  13 16 mph 1015.8mb 86f 85f
8:10  -   -   -  13 18 mph 1015.6mb 86f 85f
8:00  -   -   -  11 16 mph 1015.8mb 86f 85f
7:50 2.5ft 5s 4s 13 16 mph 1015.6mb 86f 85f
7:40 2.5ft  -  4s 13 16 mph 1015.5mb 86f 85f
7:30  -   -   -  13 16 mph 1015.4mb 86f 85f
7:20  -   -   -  13 16 mph 1015.4mb 86f 85f
7:10  -   -   -  11 13 mph 1015.3mb 86f 84f
7:00  -   -   -  13 16 mph 1015mb 86f 84f
6:50 2.5ft 5s 4s 13 16 mph 1015mb 86f 84f
6:40 2.5ft  -  4s 13 16 mph 1014.6mb 86f 84f
6:30  -   -   -  13 16 mph 1014.5mb 86f 84f
6:20  -   -   -  13 16 mph 1014.5mb 86f 84f
6:10  -   -   -  13 16 mph 1014.6mb 86f 84f
6:00  -   -   -  13 16 mph 1014.8mb 86f 84f
5:50 2.5ft 5s 4s 11 16 mph 1015mb 86f 84f
5:40  -   -   -  11 13 mph 1015mb 86f 84f
5:30  -   -   -  11 13 mph 1015.3mb 86f 84f
5:20  -   -   -  11 13 mph 1015.3mb 86f 84f
5:10  -   -   -  11 13 mph 1015.4mb 86f 84f
5:00  -   -   -  11 13 mph 1015.4mb 86f 84f
4:50 2.5ft 5s 4s 11 13 mph 1015.4mb 86f 84f
4:40  -   -   -  11 13 mph 1015.1mb 86f 84f
4:30  -   -   -  13 18 mph 1015mb 86f 84f
4:20  -   -   -  13 16 mph 1015mb 86f 84f
4:10  -   -   -  13 16 mph 1015mb 86f 84f
4:00  -   -   -  13 18 mph 1015mb 86f 84f
3:50 2.5ft 4s 4s 13 16 mph 1015.1mb 86f 84f
3:40 2.5ft  -  4s 13 16 mph 1015.3mb 86f 84f
3:30  -   -   -  13 18 mph 1015.4mb 86f 84f
3:20  -   -   -  13 18 mph 1015.5mb 86f 84f
3:10  -   -   -  13 18 mph 1015.4mb 86f 85f
3:00  -   -   -  11 16 mph 1015.4mb 86f 85f
2:50 2.5ft 5s 4s 11 13 mph 1015.4mb 86f 85f
2:40  -   -   -  11 13 mph 1015.4mb 86f 85f
2:30  -   -   -  13 16 mph 1015.3mb 86f 85f
2:20  -   -   -  11 13 mph 1015.4mb 86f 85f
2:10  -   -   -  11 13 mph 1015.5mb 86f 85f
2:00  -   -   -  11 16 mph 1015.6mb 86f 85f
1:50 2.5ft 5s 4s 11 16 mph 1015.6mb 86f 85f
1:40 2.5ft  -  4s 11 16 mph 1015.6mb 86f 85f
1:30  -   -   -  13 16 mph 1015.6mb 86f 85f
1:20  -   -   -  13 16 mph 1015.8mb 86f 85f
1:10  -   -   -  13 16 mph 1016mb 86f 85f
1:00  -   -   -  13 16 mph 1016mb 86f 85f
12:50 2.5ft 5s 4s 11 16 mph 1016mb 86f 85f
12:40  -   -   -  13 18 mph 1016.1mb 86f 85f
12:30  -   -   -  11 18 mph 1016.1mb 86f 85f
12:20  -   -   -  11 13 mph 1016.3mb 86f 85f
12:10  -   -   -  11 13 mph 1016.1mb 86f 86f
12:00  -   -   -  11 13 mph 1016.5mb 86f 85f
Qua 09/28 11:50 2.5ft 5s 4s 11 13 mph 1016.5mb 86f 86f
11:40 2.5ft  -  4s 11 13 mph 1016.6mb 86f 86f
11:30  -   -   -  11 13 mph 1016.6mb 86f 86f
11:20  -   -   -  11 13 mph 1016.6mb 86f 86f
11:10  -   -   -  13 16 mph 1016.6mb 86f 86f
11:00  -   -   -  13 16 mph 1016.5mb 86f 86f
10:50 2.5ft 5s 4s 13 16 mph 1016.5mb 86f 86f
10:40 2.5ft  -  4s 13 16 mph 1016.6mb 86f 86f
10:30  -   -   -  13 16 mph 1016.8mb 86f 86f
10:20  -   -   -  13 16 mph 1016.9mb 86f 86f
10:10  -   -   -  11 13 mph 1016.8mb 86f 86f
10:00  -   -   -  13 16 mph 1016.5mb 86f 86f
9:50 2.5ft 5s 4s 11 16 mph 1016.5mb 86f 86f
9:40 2.5ft  -  4s 11 13 mph 1016.4mb 86f 86f
9:30  -   -   -  11 13 mph 1016.4mb 86f 86f
9:20  -   -   -  11 13 mph 1016.1mb 86f 86f
9:10  -   -   -  11 13 mph 1016.1mb 86f 86f
9:00  -   -   -  11 13 mph 1016.3mb 86f 86f
8:50 2.5ft 5s 4s 11 13 mph 1016.1mb 86f 86f
8:40 2.5ft  -  4s 11 13 mph 1016mb 86f 86f
8:30  -   -   -  11 13 mph 1016mb 86f 86f
8:20  -   -   -  11 13 mph 1015.9mb 86f 86f
8:10  -   -   -  11 16 mph 1015.6mb 86f 86f
8:00  -   -   -  11 13 mph 1015.6mb 86f 86f
7:50 2.5ft 5s 4s 11 13 mph 1015.5mb 86f 86f
7:40 2.5ft  -  4s 11 13 mph 1015.5mb 86f 86f
7:30  -   -   -  11 16 mph 1015.4mb 86f 86f
7:20  -   -   -  11 13 mph 1015.3mb 86f 86f
7:10  -   -   -  13 16 mph 1015mb 86f 86f
7:00  -   -   -  11 16 mph 1014.9mb 86f 86f
6:50 2.5ft 5s 4s 11 16 mph 1014.8mb 86f 86f
6:40 2.5ft  -  4s 13 16 mph 1014.8mb 86f 86f
6:30  -   -   -  13 16 mph 1014.5mb 86f 86f
6:20  -   -   -  13 16 mph 1014.4mb 86f 86f
6:10  -   -   -  13 16 mph 1014.1mb 86f 86f
6:00  -   -   -  11 16 mph 1014mb 86f 86f
5:50 2.5ft 4s 4s 11 16 mph 1014mb 86f 86f
5:40 2.5ft  -  4s 11 13 mph 1013.8mb 86f 86f
5:30  -   -   -  11 13 mph 1013.9mb 86f 86f
5:20  -   -   -  11 13 mph 1013.9mb 86f 86f
5:10  -   -   -  11 16 mph 1013.9mb 86f 86f
5:00  -   -   -  11 13 mph 1013.9mb 86f 86f
4:50 2.5ft 4s 4s 11 13 mph 1013.8mb 86f 86f
4:40 2.5ft  -  4s 11 13 mph 1013.9mb 86f 86f
4:30  -   -   -  11 13 mph 1013.9mb 86f 86f
4:20  -   -   -  11 13 mph 1013.6mb 86f 86f
4:10  -   -   -  9
mph
1013.9mb 86f 85f
4:00  -   -   -  7 11 mph 1014mb 86f 85f
3:50 2.5ft 4s 4s 7 9 mph 1014mb 86f 85f
3:40 2.5ft  -  4s 7 9 mph 1014mb 86f 85f
3:30  -   -   -  9 11 mph 1014mb 86f 85f
3:20  -   -   -  9 11 mph 1014mb 86f 85f
3:10  -   -   -  13 16 mph 1014mb 86f 85f
3:00  -   -   -  13 18 mph 1014mb 86f 85f
2:50 2.5ft 4s 4s 13 22 mph 1014mb 86f 86f
2:40 2.5ft  -  4s 11 13 mph 1014mb 86f 86f
2:30  -   -   -  9 11 mph 1014mb 87f 86f
2:20  -   -   -  11 13 mph 1014.1mb 86f 86f
2:10  -   -   -  9 11 mph 1014.3mb 86f 86f
2:00  -   -   -  9 11 mph 1014.5mb 86f 86f
1:50 2.5ft 5s 4s 11 13 mph 1014.5mb 86f 86f
1:40 2.5ft  -  4s 11 13 mph 1014.5mb 86f 86f
1:30  -   -   -  11 13 mph 1014.5mb 86f 86f
1:20  -   -   -  11 13 mph 1014.8mb 86f 86f
1:10  -   -   -  11 13 mph 1014.9mb 86f 86f
1:00  -   -   -  11 13 mph 1014.9mb 86f 86f
12:50 2.5ft 5s 4s 11 16 mph 1015mb 86f 86f
12:40  -   -   -  11 16 mph 1015.3mb 86f 86f
12:30  -   -   -  11 16 mph 1015.4mb 86f 86f
12:20  -   -   -  11 16 mph 1015.4mb 86f 86f
12:10  -   -   -  13 16 mph 1015.5mb 86f 86f
12:00  -   -   -  11 16 mph 1015.5mb 86f 86f
11:50 2.5ft 5s 4s 13 16 mph 1015.5mb 86f 86f
11:40 2.5ft  -  4s 13 16 mph 1015.5mb 86f 86f
11:30  -   -   -  13 16 mph 1015.6mb 86f 86f
11:20  -   -   -  13 16 mph 1015.6mb 86f 86f
11:10  -   -   -  13 16 mph 1015.8mb 86f 86f
11:00  -   -   -  13 16 mph 1015.9mb 86f 86f
10:50 2.5ft 5s 4s 13 16 mph 1015.8mb 86f 86f
10:40 2.5ft  -  4s 13 18 mph 1015.8mb 86f 86f
10:30  -   -   -  13 16 mph 1015.6mb 86f 85f
10:20  -   -   -  13 18 mph 1015.5mb 86f 85f
10:10  -   -   -  13 18 mph 1015.5mb 86f 85f
10:00  -   -   -  13 18 mph 1015.5mb 86f 85f
9:50 2.5ft 4s 4s 13 18 mph 1015.5mb 86f 85f
9:40  -   -   -  16 18 mph 1015.4mb 86f 85f
9:30  -   -   -  16 18 mph 1015.4mb 86f 85f
9:20  -   -   -  16 18 mph 1015.1mb 86f 85f
9:10  -   -   -  13 16 mph 1015.1mb 86f 85f
9:00  -   -   -  13 16 mph 1015.1mb 86f 85f
8:50 2.5ft 5s 4s 13 16 mph 1015mb 86f 85f
8:40 2.5ft  -  4s 13 16 mph 1015mb 86f 85f
8:30  -   -   -  13 16 mph 1015mb 86f 85f
8:20  -   -   -  13 16 mph 1014.9mb 86f 85f
8:10  -   -   -  16 18 mph 1014.8mb 86f 85f
8:00  -   -   -  13 16 mph 1014.6mb 86f 85f
7:50 2.5ft 5s 4s 13 16 mph 1014.5mb 86f 85f
7:40  -   -   -  13 16 mph 1014.3mb 86f 85f
7:30  -   -   -  13 18 mph 1014.3mb 86f 85f
7:20  -   -   -  13 18 mph 1014mb 86f 85f
7:10  -   -   -  13 16 mph 1014mb - 85f
7:00  -   -   -  13 16 mph 1013.9mb 86f 85f
6:50 2.5ft 5s 4s 13 16 mph 1013.6mb 86f 85f
6:40 2.5ft  -  4s 13 16 mph 1013.6mb 86f 85f
6:30  -   -   -  13 18 mph 1013.6mb 86f 85f
6:20  -   -   -  13 18 mph 1013.6mb 86f 85f
6:10  -   -   -  11 16 mph 1013.6mb 86f 85f
6:00  -   -   -  11 16 mph 1013.5mb 86f 85f
5:50 2.5ft 6s 4s 11 13 mph 1013.5mb 86f 85f
5:40 2.5ft  -  4s 11 13 mph 1013.4mb 86f 85f
5:30  -   -   -  11 13 mph 1013.4mb 86f 85f
5:20  -   -   -  11 16 mph 1013.3mb 86f 85f
5:10  -   -   -  11 16 mph 1013.3mb 86f 85f
5:00  -   -   -  11 16 mph 1013.3mb 86f 85f
4:50 2.5ft 6s 4s 11 13 mph 1013.1mb 86f 85f
4:40 2.5ft  -  4s 11 16 mph 1013.1mb 86f 85f
4:30  -   -   -  11 13 mph 1013.1mb 86f 85f
4:20  -   -   -  11 13 mph 1013.1mb 86f 85f
4:10  -   -   -  11 13 mph 1013.3mb 86f 85f
4:00  -   -   -  11 13 mph 1013.4mb 86f 85f
3:50 2ft 7s 4s 11 13 mph 1013.3mb 86f 85f
3:40  -   -   -  11 13 mph 1013.4mb 86f 85f
3:30  -   -   -  11 13 mph 1013.5mb 86f 85f
3:20  -   -   -  11 13 mph 1013.5mb 86f 85f
3:10  -   -   -  11 13 mph 1013.5mb 86f 85f
3:00  -   -   -  11 13 mph 1013.5mb 86f 85f
2:50 2.5ft 5s 4s 11 13 mph 1013.5mb 86f 85f
2:40 2.5ft  -  4s 13 16 mph 1013.6mb 86f 85f
2:30  -   -   -  11 13 mph 1013.8mb 86f 85f
2:20  -   -   -  11 13 mph 1013.8mb 86f 85f
2:10  -   -   -  11 13 mph 1013.8mb 86f 85f
2:00  -   -   -  11 16 mph 1013.8mb 86f 85f
1:50 2.5ft 4s 4s 13 16 mph 1014mb 86f 85f
1:40  -   -   -  11 16 mph 1014mb 86f 85f
1:30  -   -   -  11 16 mph 1014mb 86f 85f
1:20  -   -   -  11 13 mph 1014.1mb 86f 85f
1:10  -   -   -  11 13 mph 1014.1mb 86f 85f
1:00  -   -   -  11 13 mph 1014.1mb 86f 85f
12:50 2.5ft 5s 4s 11
mph
1014.3mb 86f 85f
12:40 2.5ft  -  4s 11 13 mph 1014.3mb 86f 85f
12:30  -   -   -  11 13 mph 1014.3mb 86f 85f
12:20  -   -   -  11 13 mph 1014.3mb 86f 85f
12:10  -   -   -  11 13 mph 1014.3mb 86f 85f
12:00  -   -   -  11 13 mph 1014.3mb 86f 85f
Ter 09/27 11:50 2.5ft 4s 4s 9 13 mph 1014.1mb 86f 85f
11:40 2.5ft  -  4s 9 11 mph 1014.4mb 86f 85f
11:30  -   -   -  9 11 mph 1014.5mb 86f 85f
11:20  -   -   -  9 11 mph 1014.4mb 86f 85f
11:10  -   -   -  9 11 mph 1014.5mb 86f 85f
11:00  -   -   -  9 11 mph 1014.5mb 86f 85f
10:50 2.5ft 7s 5s 9 11 mph 1014.5mb 86f 85f
10:40 2.5ft  -  5s 9 11 mph 1014.5mb 86f 85f
10:30  -   -   -  7 9 mph 1014.5mb 86f 85f
10:20  -   -   -  9
mph
1014.5mb 86f 85f
10:10  -   -   -  9 11 mph 1014.4mb 86f 85f
10:00  -   -   -  7 9 mph 1014.3mb 86f 85f
9:50 2.5ft 5s 5s 9 11 mph 1014.3mb 86f 85f
9:40 2.5ft  -  5s 9 11 mph 1014.1mb 86f 85f
9:30  -   -   -  9 11 mph 1014mb 86f 85f
9:20  -   -   -  9 11 mph 1013.9mb 86f 85f
9:10  -   -   -  9 11 mph 1013.6mb 86f 85f
9:00  -   -   -  9 11 mph 1013.6mb 86f 85f
8:50 2.5ft 5s 5s 9 11 mph 1013.5mb 86f 85f
8:40 2.5ft  -  5s 9 11 mph 1013.1mb 86f 85f
8:30  -   -   -  9 11 mph 1013mb 86f 85f
8:20  -   -   -  9 11 mph 1012.9mb 86f 85f
8:10  -   -   -  9 11 mph 1012.8mb 86f 85f
8:00  -   -   -  9 11 mph 1012.6mb 86f 85f
7:50 2.5ft 5s 5s 9 11 mph 1012.3mb 86f 85f
7:40 2.5ft  -  5s 9
mph
1012.3mb 87f 85f
7:30  -   -   -  7 11 mph 1012.3mb 87f 85f
7:20  -   -   -  7 11 mph 1012.1mb 87f 85f
7:10  -   -   -  9 11 mph 1012mb 87f 85f
7:00  -   -   -  4 7 mph 1012mb 87f 85f
6:50 2.5ft 5s 4s 4 7 mph 1012mb 87f 85f
6:40  -   -   -  2 4 mph 1012mb 87f 85f
6:30  -   -   -  4 7 mph 1011.9mb 87f 85f
6:20  -   -   -  4 7 mph 1011.9mb 87f 85f
6:10  -   -   -  4 7 mph 1011.8mb 87f 85f
6:00  -   -   -  7
mph
1011.8mb 87f 85f
5:50 2.5ft 8s 4s 7 9 mph 1011.6mb 87f 85f
5:40 2.5ft  -  4s 11 16 mph 1011.8mb 87f 85f
5:30  -   -   -  7 9 mph 1011.5mb 87f 85f
5:20  -   -   -  7 9 mph 1011.5mb 87f 86f
5:10  -   -   -  7 9 mph 1011.5mb 87f 86f
5:00  -   -   -  4 7 mph 1011.3mb 87f 86f
4:50 2.5ft 5s 4s 4 7 mph 1011.3mb 87f 86f
4:40 2.5ft  -  4s 7
mph
1011.3mb 87f 86f
4:30  -   -   -  7
mph
1011.3mb 87f 86f
4:20  -   -   -  7
mph
1011mb 87f 85f
4:10  -   -   -  4 7 mph 1011mb 87f 85f
4:00  -   -   -  7 9 mph 1011mb 87f 85f
3:50 2.5ft 5s 4s 7 9 mph 1011mb 87f 85f
3:40 2.5ft  -  4s 7 9 mph 1011mb 87f 85f
3:30  -   -   -  7 9 mph 1011.3mb 87f 85f
3:20  -   -   -  7 11 mph 1011.3mb 87f 85f
3:10  -   -   -  7 9 mph 1011.5mb 87f 85f
3:00  -   -   -  7 11 mph 1011.5mb 87f 85f
2:50 2.5ft 5s 4s 7 9 mph 1011.6mb 86f 85f
2:40 2.5ft  -  4s 7 9 mph 1011.6mb 86f 84f
2:30  -   -   -  4 9 mph 1011.8mb 86f 84f
2:20  -   -   -  4 7 mph 1011.9mb 86f 83f
2:10  -   -   -  4 9 mph 1012mb 86f 83f
2:00  -   -   -  7 9 mph 1012mb - 83f
1:50 2.5ft 4s 4s 9 13 mph 1012.1mb 86f 83f
1:40  -   -   -  13 20 mph 1012.3mb 86f 83f
1:30  -   -   -  13 18 mph 1012.4mb 87f 85f
1:20  -   -   -  4 7 mph 1012.4mb 87f 86f
1:10  -   -   -  7 9 mph 1012.5mb 87f 86f
1:00  -   -   -  7 9 mph 1012.5mb 87f 86f
12:50 2.5ft 4s 4s 7 9 mph 1012.8mb 86f 85f
12:40 2.5ft  -  4s 7 9 mph 1012.6mb 86f 85f
12:30  -   -   -  7 11 mph 1012.9mb 86f 85f
12:20  -   -   -  9 11 mph 1013mb 86f 85f
12:10  -   -   -  9 11 mph 1013.1mb 86f 85f
12:00  -   -   -  9 11 mph 1013.3mb 86f 85f
11:50 2.5ft 4s 4s 9 11 mph 1013.5mb 86f 85f
11:40  -   -   -  9 11 mph 1013.5mb 86f 85f
11:30  -   -   -  9
mph
1013.6mb 86f 85f
11:20  -   -   -  9 11 mph 1013.5mb 86f 85f
11:10  -   -   -  9 11 mph 1013.6mb 86f 85f
11:00  -   -   -  9 11 mph 1013.5mb 86f 85f
10:50 2.5ft 5s 4s 9 11 mph 1013.6mb 86f 85f
10:40  -   -   -  9 11 mph 1013.6mb 86f 85f
10:30  -   -   -  9 11 mph 1013.6mb 86f 85f
10:20  -   -   -  9 11 mph 1013.6mb 86f 85f
10:10  -   -   -  9
mph
1013.6mb 86f 85f
10:00  -   -   -  9 11 mph 1013.6mb 86f 85f
9:50 2.5ft 5s 4s 9 11 mph 1013.6mb 86f 86f
9:40 2.5ft  -  4s 9 11 mph 1013.6mb 86f 85f
9:30  -   -   -  11 13 mph 1013.5mb 86f 85f
9:20  -   -   -  11 13 mph 1013.5mb 86f 85f
9:10  -   -   -  9 13 mph 1013.4mb 86f 85f
9:00  -   -   -  9 11 mph 1013.5mb 86f 85f
8:50 2.5ft 4s 4s 11 13 mph 1013.3mb 86f 85f
8:40 2.5ft  -  4s 11 13 mph 1013.3mb 86f 85f
8:30  -   -   -  11 13 mph 1013.1mb 86f 85f
8:20  -   -   -  11 13 mph 1013mb 86f 85f
8:10  -   -   -  9 11 mph 1012.9mb 86f 85f
8:00  -   -   -  9 13 mph 1012.8mb 86f 85f
7:50 2.5ft 6s 4s 11 13 mph 1012.6mb 86f 85f
7:40 2.5ft  -  4s 11 13 mph 1012.6mb 86f 85f
7:30  -   -   -  11 13 mph 1012.5mb 86f 85f
7:20  -   -   -  11 13 mph 1012.5mb 86f 85f
7:10  -   -   -  11 13 mph 1012.4mb 86f 85f
7:00  -   -   -  11 13 mph 1012.4mb 86f 85f
6:50 2.5ft 5s 4s 11 13 mph 1012.3mb 86f 85f
6:40  -   -   -  11 13 mph 1012mb 86f 85f
6:30  -   -   -  11 16 mph 1012mb 86f 85f
6:20  -   -   -  11 13 mph 1012mb 86f 85f
6:10  -   -   -  11 13 mph 1012mb 86f 85f
6:00  -   -   -  9 13 mph 1012mb 86f 85f
5:50 2.5ft 4s 4s 9 11 mph 1011.9mb 86f 85f
5:40 2.5ft  -  4s 9 11 mph 1011.8mb 86f 85f
5:30  -   -   -  9 11 mph 1011.8mb 86f 85f
5:20  -   -   -  9 11 mph 1011.6mb 86f 85f
5:10  -   -   -  9 13 mph 1011.6mb 86f 85f
5:00  -   -   -  9 13 mph 1011.5mb 86f 85f
4:50 2.5ft 5s 4s 9 11 mph 1011.5mb 86f 84f
4:40  -   -   -  7 9 mph 1011.5mb 86f 84f
4:30  -   -   -  7 9 mph 1011.5mb 86f 84f
4:20  -   -   -  7 9 mph 1011.6mb 86f 84f
4:10  -   -   -  9 11 mph 1011.8mb 86f 84f
4:00  -   -   -  9 11 mph 1011.6mb 86f 84f
3:50 2.5ft 5s 4s 9 11 mph 1011.6mb 86f 85f
3:40 2.5ft  -  4s 9 11 mph 1011.8mb 86f 85f
3:30  -   -   -  9 11 mph 1011.8mb 86f 85f
3:20  -   -   -  7 9 mph 1011.9mb 86f 85f
3:10  -   -   -  9 11 mph 1012mb 86f 85f
3:00  -   -   -  9 11 mph 1011.8mb 86f 85f
2:50 2.5ft 5s 4s 9 11 mph 1011.8mb 86f 85f
2:40  -   -   -  9 11 mph 1011.9mb 86f 85f
2:30  -   -   -  9 11 mph 1012mb 86f 85f
2:20  -   -   -  9 13 mph 1012mb 86f 85f
2:10  -   -   -  11 13 mph 1012.1mb 86f 85f
2:00  -   -   -  11 13 mph 1012.1mb 86f 85f
1:50 2.5ft 6s 4s 11 13 mph 1012.1mb 86f 85f
1:40 2.5ft  -  4s 11 13 mph 1012.1mb 86f 85f
1:30  -   -   -  11 13 mph 1012.3mb 86f 85f
1:20  -   -   -  11 13 mph 1012.4mb 86f 85f
1:10  -   -   -  11 13 mph 1012.5mb 86f 85f
1:00  -   -   -  11 13 mph 1012.8mb 86f 85f
12:50 2.5ft 7s 4s 11 13 mph 1012.9mb 86f 85f
12:40 2.5ft  -  4s 11 13 mph 1012.9mb 86f 85f
12:30  -   -   -  11 13 mph 1013mb 86f 85f
12:20  -   -   -  13 16 mph 1013mb 86f 85f
12:10  -   -   -  11 16 mph 1013.1mb 86f 85f
12:00  -   -   -  13 16 mph 1013.3mb 86f 85f
Seg 09/26 11:50 2.5ft 7s 4s 13 16 mph 1013.1mb 86f 85f
11:40 2.5ft  -  4s 13 16 mph 1013.3mb 86f 85f
11:30  -   -   -  13 16 mph 1013.3mb 86f 85f
11:20  -   -   -  13 16 mph 1013.4mb 86f 85f
11:10  -   -   -  13 16 mph 1013.4mb 86f 85f
11:00  -   -   -  11 13 mph 1013.4mb 86f 85f
10:50 2.5ft 7s 4s 11 13 mph 1013.5mb 86f 85f
10:40  -   -   -  13 16 mph 1013.6mb 86f 85f
10:30  -   -   -  13 16 mph 1013.5mb 86f 85f
10:20  -   -   -  11 16 mph 1013.5mb 86f 85f
10:10  -   -   -  13 16 mph 1013.5mb 86f 85f
10:00  -   -   -  13 16 mph 1013.4mb 86f 85f
9:50 2.5ft 6s 4s 13 16 mph 1013.4mb 86f 85f
9:40 2.5ft  -  4s 13 16 mph 1013.1mb 86f 85f
9:30  -   -   -  13 18 mph 1013.1mb 86f 85f
9:20  -   -   -  13 16 mph 1013.1mb 86f 85f
9:10  -   -   -  13 16 mph 1013.1mb 86f 85f
9:00  -   -   -  11 16 mph 1013.1mb 86f 85f
8:50 2.5ft 6s 4s 13 16 mph 1013.1mb 86f 85f
8:40 2.5ft  -  4s 13 16 mph 1013mb 86f 85f
8:30  -   -   -  13 16 mph 1012.9mb 86f 85f
8:20  -   -   -  13 16 mph 1012.6mb 86f 85f
8:10  -   -   -  13 16 mph 1012.5mb 86f 85f
8:00  -   -   -  11 13 mph 1012.1mb 86f 85f
7:50 2.5ft 6s 4s 11 16 mph 1012mb 86f 85f
7:40 2.5ft  -  4s 11 16 mph 1011.8mb 86f 85f
7:30  -   -   -  11 13 mph 1011.8mb 86f 85f
7:20  -   -   -  11 13 mph 1011.6mb 86f 85f
7:10  -   -   -  11 13 mph 1011.5mb 86f 85f
7:00  -   -   -  11 13 mph 1011.4mb 86f 85f
6:50 2.5ft 6s 4s 11 13 mph 1011.3mb 86f 85f
6:40 2.5ft  -  4s 11 13 mph 1011mb 86f 85f
6:30  -   -   -  11 13 mph 1011mb 86f 85f
6:20  -   -   -  11 13 mph 1011mb 86f 85f
6:10  -   -   -  11 13 mph 1011mb 86f 85f
6:00  -   -   -  11 13 mph 1011mb 86f 85f
5:50 2.5ft 6s 4s 9 13 mph 1011mb 86f 85f
5:40 2.5ft  -  4s 11
mph
1010.8mb 86f 85f
5:30  -   -   -  11 13 mph 1010.5mb - 85f
5:20  -   -   -  11 13 mph 1010.6mb 86f 85f
5:10  -   -   -  9 11 mph 1010.6mb 86f 85f
5:00  -   -   -  9 13 mph 1010.6mb 86f 85f
4:50 2ft 7s 4s 9 13 mph 1010.8mb 86f 85f
4:40 2ft  -  4s 7 11 mph 1010.8mb 86f 85f
4:30  -   -   -  7 9 mph 1011mb 86f 85f
4:20  -   -   -  7 9 mph 1011.1mb 86f 85f
4:10  -   -   -  9
mph
1011.1mb 86f 85f
4:00  -   -   -  9 11 mph 1011.3mb 86f 85f
3:50 2ft 5s 4s 11 13 mph 1011.3mb 86f 85f
3:40  -   -   -  13 16 mph 1011.5mb 87f 84f
3:30  -   -   -  16 18 mph 1011.5mb 86f 84f
3:20  -   -   -  11 13 mph 1011.8mb 86f 85f
3:10  -   -   -  11 13 mph 1011.8mb 87f 84f
3:00  -   -   -  13 18 mph 1012.5mb - 85f
2:50 2ft 5s 4s 9 16 mph 1011.6mb 87f 85f
2:40  -   -   -  7 9 mph 1011.8mb 87f 85f
2:30  -   -   -  4 7 mph 1011.9mb 86f 84f
2:20  -   -   -  11 18 mph 1011.9mb 87f 85f
2:10  -   -   -  9 11 mph 1012mb 87f 85f
2:00  -   -   -  7 9 mph 1012mb 87f 85f
1:50 2ft 4s 4s 9 11 mph 1012.3mb 87f 85f
1:40  -   -   -  7 11 mph 1012.3mb 87f 85f
1:30  -   -   -  7 9 mph 1012.3mb 87f 85f
1:20  -   -   -  9
mph
1012.4mb 87f 86f
1:10  -   -   -  9 11 mph 1012.5mb 87f 86f
1:00  -   -   -  9 11 mph 1012.5mb 87f 86f
12:50 2ft 5s 4s 9 13 mph 1012.5mb 87f 86f
12:40  -   -   -  9 13 mph 1012.5mb 86f 85f
12:30  -   -   -  11 13 mph 1012.6mb 86f 85f
12:20  -   -   -  9 11 mph 1012.8mb 86f 85f
12:10  -   -   -  9 11 mph 1012.9mb 86f 85f
12:00  -   -   -  9 11 mph 1013.1mb 86f 85f
11:50 2ft 5s 4s 9 11 mph 1013.1mb 86f 85f
11:40 2ft  -  4s 9 11 mph 1013.3mb 86f 85f
11:30  -   -   -  9 11 mph 1013.4mb 86f 85f
11:20  -   -   -  9 11 mph 1013.5mb 86f 85f
11:10  -   -   -  9 11 mph 1013.5mb 86f 85f
11:00  -   -   -  9 11 mph 1013.6mb 86f 85f
10:50 2ft 4s 4s 9 11 mph 1013.8mb 86f 86f
10:40 2ft  -  4s 9 11 mph 1013.9mb 86f 85f
10:30  -   -   -  9 11 mph 1013.9mb 86f 85f
10:20  -   -   -  9 11 mph 1013.8mb 86f 85f
10:10  -   -   -  9 11 mph 1013.8mb 86f 85f
10:00  -   -   -  9 11 mph 1013.9mb 86f 85f
9:50 2ft 5s 4s 9 11 mph 1013.9mb 86f 85f
9:40  -   -   -  9 11 mph 1013.9mb 86f 85f
9:30  -   -   -  9 11 mph 1013.8mb 86f 85f
9:20  -   -   -  9 11 mph 1013.6mb 86f 85f
9:10  -   -   -  9 11 mph 1013.6mb 86f 85f
9:00  -   -   -  9 13 mph 1013.5mb 86f 85f
8:50 2ft 5s 4s 9 13 mph 1013.5mb 86f 85f
8:40 2ft  -  4s 9 11 mph 1013.5mb 86f 85f
8:30  -   -   -  9 11 mph 1013.5mb 86f 85f
8:20  -   -   -  9 11 mph 1013.4mb 86f 85f
8:10  -   -   -  9 11 mph 1013.3mb 86f 85f
8:00  -   -   -  9 11 mph 1013.1mb 86f 85f
7:50 2ft 5s 4s 9 11 mph 1013.1mb 86f 85f
7:40 2ft  -  4s 7 9 mph 1013mb 86f 85f
7:30  -   -   -  9 11 mph 1013mb 86f 85f
7:20  -   -   -  9 11 mph 1013mb 86f 85f
7:10  -   -   -  9
mph
1013mb 86f 85f
7:00  -   -   -  9 11 mph 1012.9mb 86f 85f
6:50 2ft 4s 4s 7 9 mph 1012.8mb 86f 85f
6:40 2ft  -  4s 9 11 mph 1012.6mb 86f 85f
6:30  -   -   -  9 11 mph 1012.5mb 86f 85f
6:20  -   -   -  7 9 mph 1012.5mb 86f 85f
6:10  -   -   -  7 9 mph 1012.4mb 86f 85f
6:00  -   -   -  7 9 mph 1012.3mb 86f 85f
5:50 2ft 4s 4s 7 11 mph 1012.3mb 86f 85f
5:40  -   -   -  7 9 mph 1012.3mb 86f 85f
5:30  -   -   -  7 9 mph 1012.3mb 86f 85f
5:20  -   -   -  9 11 mph 1012.3mb 86f 85f
5:10  -   -   -  9 11 mph 1012.1mb 86f 85f